sensor_id;sensor_type;location;lat;lon;timestamp;temperature;humidity
42421;DHT22;28063;48.140;11.588;2023-04-15T00:02:16;5.90;99.90
42421;DHT22;28063;48.140;11.588;2023-04-15T00:04:44;6.00;99.90
42421;DHT22;28063;48.140;11.588;2023-04-15T00:07:10;6.00;99.90
42421;DHT22;28063;48.140;11.588;2023-04-15T00:09:36;6.00;99.90
42421;DHT22;28063;48.140;11.588;2023-04-15T00:12:02;6.00;99.90
42421;DHT22;28063;48.140;11.588;2023-04-15T00:14:32;6.00;99.90
42421;DHT22;28063;48.140;11.588;2023-04-15T00:16:58;6.00;99.90
42421;DHT22;28063;48.140;11.588;2023-04-15T00:19:24;6.00;99.90
42421;DHT22;28063;48.140;11.588;2023-04-15T00:21:50;6.00;99.90
42421;DHT22;28063;48.140;11.588;2023-04-15T00:24:16;6.00;99.90
42421;DHT22;28063;48.140;11.588;2023-04-15T00:26:42;6.00;99.90
42421;DHT22;28063;48.140;11.588;2023-04-15T00:29:07;6.00;99.90
42421;DHT22;28063;48.140;11.588;2023-04-15T00:31:33;6.00;99.90
42421;DHT22;28063;48.140;11.588;2023-04-15T00:33:59;6.00;99.90
42421;DHT22;28063;48.140;11.588;2023-04-15T00:36:26;6.00;99.90
42421;DHT22;28063;48.140;11.588;2023-04-15T00:38:52;6.00;99.90
42421;DHT22;28063;48.140;11.588;2023-04-15T00:41:18;6.10;99.90
42421;DHT22;28063;48.140;11.588;2023-04-15T00:43:45;6.00;99.90
42421;DHT22;28063;48.140;11.588;2023-04-15T00:46:13;6.10;99.90
42421;DHT22;28063;48.140;11.588;2023-04-15T00:48:40;6.10;99.90
42421;DHT22;28063;48.140;11.588;2023-04-15T00:51:06;6.10;99.90
42421;DHT22;28063;48.140;11.588;2023-04-15T00:53:33;6.10;99.90
42421;DHT22;28063;48.140;11.588;2023-04-15T00:55:59;6.10;99.90
42421;DHT22;28063;48.140;11.588;2023-04-15T00:58:25;6.10;99.90
42421;DHT22;28063;48.140;11.588;2023-04-15T01:00:53;6.10;99.90
42421;DHT22;28063;48.140;11.588;2023-04-15T01:03:19;6.10;99.90
42421;DHT22;28063;48.140;11.588;2023-04-15T01:05:45;6.10;99.90
42421;DHT22;28063;48.140;11.588;2023-04-15T01:08:11;6.10;99.90
42421;DHT22;28063;48.140;11.588;2023-04-15T01:10:37;6.10;99.90
42421;DHT22;28063;48.140;11.588;2023-04-15T01:13:03;6.10;99.90
42421;DHT22;28063;48.140;11.588;2023-04-15T01:15:30;6.10;99.90
42421;DHT22;28063;48.140;11.588;2023-04-15T01:18:00;6.10;99.90
42421;DHT22;28063;48.140;11.588;2023-04-15T01:20:28;6.10;99.90
42421;DHT22;28063;48.140;11.588;2023-04-15T01:22:54;6.10;99.90
42421;DHT22;28063;48.140;11.588;2023-04-15T01:25:31;6.10;99.90
42421;DHT22;28063;48.140;11.588;2023-04-15T01:27:58;6.10;99.90
42421;DHT22;28063;48.140;11.588;2023-04-15T01:30:24;6.10;99.90
42421;DHT22;28063;48.140;11.588;2023-04-15T01:32:51;6.10;99.90
42421;DHT22;28063;48.140;11.588;2023-04-15T01:35:17;6.10;99.90
42421;DHT22;28063;48.140;11.588;2023-04-15T01:37:43;6.10;99.90
42421;DHT22;28063;48.140;11.588;2023-04-15T01:40:10;6.10;99.90
42421;DHT22;28063;48.140;11.588;2023-04-15T01:42:36;6.00;99.90
42421;DHT22;28063;48.140;11.588;2023-04-15T01:45:02;6.00;99.90
42421;DHT22;28063;48.140;11.588;2023-04-15T01:47:28;6.00;99.90
42421;DHT22;28063;48.140;11.588;2023-04-15T01:49:53;6.10;99.90
42421;DHT22;28063;48.140;11.588;2023-04-15T01:52:19;6.10;99.90
42421;DHT22;28063;48.140;11.588;2023-04-15T01:54:45;6.10;99.90
42421;DHT22;28063;48.140;11.588;2023-04-15T01:57:11;6.10;99.90
42421;DHT22;28063;48.140;11.588;2023-04-15T01:59:36;6.00;99.90
42421;DHT22;28063;48.140;11.588;2023-04-15T02:02:02;6.10;99.90
42421;DHT22;28063;48.140;11.588;2023-04-15T02:04:28;6.10;99.90
42421;DHT22;28063;48.140;11.588;2023-04-15T02:06:54;6.00;99.90
42421;DHT22;28063;48.140;11.588;2023-04-15T02:09:20;6.00;99.90
42421;DHT22;28063;48.140;11.588;2023-04-15T02:11:46;6.00;99.90
42421;DHT22;28063;48.140;11.588;2023-04-15T02:14:11;6.00;99.90
42421;DHT22;28063;48.140;11.588;2023-04-15T02:16:37;6.10;99.90
42421;DHT22;28063;48.140;11.588;2023-04-15T02:19:03;6.10;99.90
42421;DHT22;28063;48.140;11.588;2023-04-15T02:21:29;6.10;99.90
42421;DHT22;28063;48.140;11.588;2023-04-15T02:23:55;6.10;99.90
42421;DHT22;28063;48.140;11.588;2023-04-15T02:26:21;6.10;99.90
42421;DHT22;28063;48.140;11.588;2023-04-15T02:28:50;6.10;99.90
42421;DHT22;28063;48.140;11.588;2023-04-15T02:31:18;6.10;99.90
42421;DHT22;28063;48.140;11.588;2023-04-15T02:33:44;6.10;99.90
42421;DHT22;28063;48.140;11.588;2023-04-15T02:36:09;6.10;99.90
42421;DHT22;28063;48.140;11.588;2023-04-15T02:38:36;6.10;99.90
42421;DHT22;28063;48.140;11.588;2023-04-15T02:41:04;6.10;99.90
42421;DHT22;28063;48.140;11.588;2023-04-15T02:43:30;6.10;99.90
42421;DHT22;28063;48.140;11.588;2023-04-15T02:45:56;6.10;99.90
42421;DHT22;28063;48.140;11.588;2023-04-15T02:48:21;6.10;99.90
42421;DHT22;28063;48.140;11.588;2023-04-15T02:50:47;6.00;99.90
42421;DHT22;28063;48.140;11.588;2023-04-15T02:53:13;6.00;99.90
42421;DHT22;28063;48.140;11.588;2023-04-15T02:55:39;6.00;99.90
42421;DHT22;28063;48.140;11.588;2023-04-15T02:58:05;6.00;99.90
42421;DHT22;28063;48.140;11.588;2023-04-15T03:00:31;6.10;99.90
42421;DHT22;28063;48.140;11.588;2023-04-15T03:03:04;6.00;99.90
42421;DHT22;28063;48.140;11.588;2023-04-15T03:05:30;6.10;99.90
42421;DHT22;28063;48.140;11.588;2023-04-15T03:07:56;6.10;99.90
42421;DHT22;28063;48.140;11.588;2023-04-15T03:10:21;6.10;99.90
42421;DHT22;28063;48.140;11.588;2023-04-15T03:12:47;6.10;99.90
42421;DHT22;28063;48.140;11.588;2023-04-15T03:15:13;6.20;99.90
42421;DHT22;28063;48.140;11.588;2023-04-15T03:17:39;6.20;99.90
42421;DHT22;28063;48.140;11.588;2023-04-15T03:20:05;6.20;99.90
42421;DHT22;28063;48.140;11.588;2023-04-15T03:22:32;6.20;99.90
42421;DHT22;28063;48.140;11.588;2023-04-15T03:24:57;6.20;99.90
42421;DHT22;28063;48.140;11.588;2023-04-15T03:27:24;6.20;99.90
42421;DHT22;28063;48.140;11.588;2023-04-15T03:29:50;6.10;99.90
42421;DHT22;28063;48.140;11.588;2023-04-15T03:32:16;6.20;99.90
42421;DHT22;28063;48.140;11.588;2023-04-15T03:34:42;6.10;99.90
42421;DHT22;28063;48.140;11.588;2023-04-15T03:37:08;6.10;99.90
42421;DHT22;28063;48.140;11.588;2023-04-15T03:39:34;6.10;99.90
42421;DHT22;28063;48.140;11.588;2023-04-15T03:42:00;6.00;99.90
42421;DHT22;28063;48.140;11.588;2023-04-15T03:44:26;6.00;99.90
42421;DHT22;28063;48.140;11.588;2023-04-15T03:46:52;6.00;99.90
42421;DHT22;28063;48.140;11.588;2023-04-15T03:49:19;6.00;99.90
42421;DHT22;28063;48.140;11.588;2023-04-15T03:51:45;6.00;99.90
42421;DHT22;28063;48.140;11.588;2023-04-15T03:54:11;6.00;99.90
42421;DHT22;28063;48.140;11.588;2023-04-15T03:56:38;6.00;99.90
42421;DHT22;28063;48.140;11.588;2023-04-15T03:59:04;6.00;99.90
42421;DHT22;28063;48.140;11.588;2023-04-15T04:01:30;6.00;99.90
42421;DHT22;28063;48.140;11.588;2023-04-15T04:03:56;6.00;99.90
42421;DHT22;28063;48.140;11.588;2023-04-15T04:06:22;6.00;99.90
42421;DHT22;28063;48.140;11.588;2023-04-15T04:08:48;6.00;99.90
42421;DHT22;28063;48.140;11.588;2023-04-15T04:11:13;6.00;99.90
42421;DHT22;28063;48.140;11.588;2023-04-15T04:13:39;6.00;99.90
42421;DHT22;28063;48.140;11.588;2023-04-15T04:16:05;6.00;99.90
42421;DHT22;28063;48.140;11.588;2023-04-15T04:18:32;6.00;99.90
42421;DHT22;28063;48.140;11.588;2023-04-15T04:20:58;6.00;99.90
42421;DHT22;28063;48.140;11.588;2023-04-15T04:23:23;6.00;99.90
42421;DHT22;28063;48.140;11.588;2023-04-15T04:25:49;6.10;99.90
42421;DHT22;28063;48.140;11.588;2023-04-15T04:28:15;6.00;99.90
42421;DHT22;28063;48.140;11.588;2023-04-15T04:30:41;6.00;99.90
42421;DHT22;28063;48.140;11.588;2023-04-15T04:33:07;6.00;99.90
42421;DHT22;28063;48.140;11.588;2023-04-15T04:35:32;6.00;99.90
42421;DHT22;28063;48.140;11.588;2023-04-15T04:38:00;6.00;99.90
42421;DHT22;28063;48.140;11.588;2023-04-15T04:40:26;6.00;99.90
42421;DHT22;28063;48.140;11.588;2023-04-15T04:42:52;6.00;99.90
42421;DHT22;28063;48.140;11.588;2023-04-15T04:45:19;6.00;99.90
42421;DHT22;28063;48.140;11.588;2023-04-15T04:47:44;6.10;99.90
42421;DHT22;28063;48.140;11.588;2023-04-15T04:50:11;6.10;99.90
42421;DHT22;28063;48.140;11.588;2023-04-15T04:52:37;6.10;99.90
42421;DHT22;28063;48.140;11.588;2023-04-15T04:55:02;6.10;99.90
42421;DHT22;28063;48.140;11.588;2023-04-15T04:57:28;6.20;99.90
42421;DHT22;28063;48.140;11.588;2023-04-15T04:59:54;6.20;99.90
42421;DHT22;28063;48.140;11.588;2023-04-15T05:02:20;6.20;99.90
42421;DHT22;28063;48.140;11.588;2023-04-15T05:04:46;6.20;99.90
42421;DHT22;28063;48.140;11.588;2023-04-15T05:07:12;6.20;99.90
42421;DHT22;28063;48.140;11.588;2023-04-15T05:09:38;6.20;99.90
42421;DHT22;28063;48.140;11.588;2023-04-15T05:12:04;6.30;99.90
42421;DHT22;28063;48.140;11.588;2023-04-15T05:14:30;6.30;99.90
42421;DHT22;28063;48.140;11.588;2023-04-15T05:16:56;6.30;99.90
42421;DHT22;28063;48.140;11.588;2023-04-15T05:19:22;6.30;99.90
42421;DHT22;28063;48.140;11.588;2023-04-15T05:21:48;6.30;99.90
42421;DHT22;28063;48.140;11.588;2023-04-15T05:24:13;6.40;99.90
42421;DHT22;28063;48.140;11.588;2023-04-15T05:26:39;6.30;99.90
42421;DHT22;28063;48.140;11.588;2023-04-15T05:29:05;6.40;99.90
42421;DHT22;28063;48.140;11.588;2023-04-15T05:31:31;6.40;99.90
42421;DHT22;28063;48.140;11.588;2023-04-15T05:33:57;6.40;99.90
42421;DHT22;28063;48.140;11.588;2023-04-15T05:36:22;6.50;99.90
42421;DHT22;28063;48.140;11.588;2023-04-15T05:38:48;6.50;99.90
42421;DHT22;28063;48.140;11.588;2023-04-15T05:41:14;6.50;99.80
42421;DHT22;28063;48.140;11.588;2023-04-15T05:43:40;6.50;99.60
42421;DHT22;28063;48.140;11.588;2023-04-15T05:46:06;6.50;99.20
42421;DHT22;28063;48.140;11.588;2023-04-15T05:48:32;6.50;98.90
42421;DHT22;28063;48.140;11.588;2023-04-15T05:50:59;6.50;98.90
42421;DHT22;28063;48.140;11.588;2023-04-15T05:53:25;6.60;98.80
42421;DHT22;28063;48.140;11.588;2023-04-15T05:55:51;6.60;98.70
42421;DHT22;28063;48.140;11.588;2023-04-15T05:58:16;6.70;98.50
42421;DHT22;28063;48.140;11.588;2023-04-15T06:00:42;6.70;98.00
42421;DHT22;28063;48.140;11.588;2023-04-15T06:03:09;6.70;97.60
42421;DHT22;28063;48.140;11.588;2023-04-15T06:05:36;6.80;97.50
42421;DHT22;28063;48.140;11.588;2023-04-15T06:08:02;6.80;97.00
42421;DHT22;28063;48.140;11.588;2023-04-15T06:10:28;6.80;96.90
42421;DHT22;28063;48.140;11.588;2023-04-15T06:12:53;6.90;96.70
42421;DHT22;28063;48.140;11.588;2023-04-15T06:15:19;6.90;96.90
42421;DHT22;28063;48.140;11.588;2023-04-15T06:17:45;6.90;96.30
42421;DHT22;28063;48.140;11.588;2023-04-15T06:20:11;6.90;95.70
42421;DHT22;28063;48.140;11.588;2023-04-15T06:22:37;6.90;95.50
42421;DHT22;28063;48.140;11.588;2023-04-15T06:25:06;7.00;95.60
42421;DHT22;28063;48.140;11.588;2023-04-15T06:27:35;7.10;95.60
42421;DHT22;28063;48.140;11.588;2023-04-15T06:30:01;7.10;94.60
42421;DHT22;28063;48.140;11.588;2023-04-15T06:32:26;7.10;94.60
42421;DHT22;28063;48.140;11.588;2023-04-15T06:34:52;7.10;94.60
42421;DHT22;28063;48.140;11.588;2023-04-15T06:37:21;7.20;94.40
42421;DHT22;28063;48.140;11.588;2023-04-15T06:39:46;7.30;93.80
42421;DHT22;28063;48.140;11.588;2023-04-15T06:42:12;7.30;93.50
42421;DHT22;28063;48.140;11.588;2023-04-15T06:44:38;7.40;93.30
42421;DHT22;28063;48.140;11.588;2023-04-15T06:47:04;7.50;93.00
42421;DHT22;28063;48.140;11.588;2023-04-15T06:49:29;7.50;92.90
42421;DHT22;28063;48.140;11.588;2023-04-15T06:51:55;7.60;92.60
42421;DHT22;28063;48.140;11.588;2023-04-15T06:54:24;7.70;92.30
42421;DHT22;28063;48.140;11.588;2023-04-15T06:56:50;7.70;92.30
42421;DHT22;28063;48.140;11.588;2023-04-15T06:59:16;7.80;91.50
42421;DHT22;28063;48.140;11.588;2023-04-15T07:01:42;7.80;91.30
42421;DHT22;28063;48.140;11.588;2023-04-15T07:04:07;7.90;91.10
42421;DHT22;28063;48.140;11.588;2023-04-15T07:06:33;7.90;90.90
42421;DHT22;28063;48.140;11.588;2023-04-15T07:09:00;8.00;91.30
42421;DHT22;28063;48.140;11.588;2023-04-15T07:11:27;8.20;91.10
42421;DHT22;28063;48.140;11.588;2023-04-15T07:13:53;8.40;90.50
42421;DHT22;28063;48.140;11.588;2023-04-15T07:16:19;8.70;90.00
42421;DHT22;28063;48.140;11.588;2023-04-15T07:18:44;9.00;89.00
42421;DHT22;28063;48.140;11.588;2023-04-15T07:21:10;9.30;87.50
42421;DHT22;28063;48.140;11.588;2023-04-15T07:23:36;9.40;85.30
42421;DHT22;28063;48.140;11.588;2023-04-15T07:26:02;9.40;84.00
42421;DHT22;28063;48.140;11.588;2023-04-15T07:28:28;9.40;84.00
42421;DHT22;28063;48.140;11.588;2023-04-15T07:30:54;9.40;83.10
42421;DHT22;28063;48.140;11.588;2023-04-15T07:33:21;9.50;83.20
42421;DHT22;28063;48.140;11.588;2023-04-15T07:35:47;9.60;82.10
42421;DHT22;28063;48.140;11.588;2023-04-15T07:38:13;9.70;81.80
42421;DHT22;28063;48.140;11.588;2023-04-15T07:40:39;9.80;81.80
42421;DHT22;28063;48.140;11.588;2023-04-15T07:43:05;9.80;80.80
42421;DHT22;28063;48.140;11.588;2023-04-15T07:45:31;9.80;80.80
42421;DHT22;28063;48.140;11.588;2023-04-15T07:47:57;9.80;80.30
42421;DHT22;28063;48.140;11.588;2023-04-15T07:50:23;9.80;78.80
42421;DHT22;28063;48.140;11.588;2023-04-15T07:52:49;9.90;79.20
42421;DHT22;28063;48.140;11.588;2023-04-15T07:55:16;10.10;79.60
42421;DHT22;28063;48.140;11.588;2023-04-15T07:57:44;10.50;78.90
42421;DHT22;28063;48.140;11.588;2023-04-15T08:00:12;10.70;77.20
42421;DHT22;28063;48.140;11.588;2023-04-15T08:02:38;10.90;74.90
42421;DHT22;28063;48.140;11.588;2023-04-15T08:05:04;11.00;74.20
42421;DHT22;28063;48.140;11.588;2023-04-15T08:07:30;11.20;74.10
42421;DHT22;28063;48.140;11.588;2023-04-15T08:09:56;11.40;72.70
42421;DHT22;28063;48.140;11.588;2023-04-15T08:12:22;11.50;73.00
42421;DHT22;28063;48.140;11.588;2023-04-15T08:14:49;11.60;72.40
42421;DHT22;28063;48.140;11.588;2023-04-15T08:17:15;11.70;71.20
42421;DHT22;28063;48.140;11.588;2023-04-15T08:19:41;11.70;70.50
42421;DHT22;28063;48.140;11.588;2023-04-15T08:22:07;11.80;70.70
42421;DHT22;28063;48.140;11.588;2023-04-15T08:24:33;11.80;69.60
42421;DHT22;28063;48.140;11.588;2023-04-15T08:26:59;11.80;68.80
42421;DHT22;28063;48.140;11.588;2023-04-15T08:29:28;11.70;70.00
42421;DHT22;28063;48.140;11.588;2023-04-15T08:31:54;11.70;69.90
42421;DHT22;28063;48.140;11.588;2023-04-15T08:34:20;11.80;70.60
42421;DHT22;28063;48.140;11.588;2023-04-15T08:36:45;11.90;70.40
42421;DHT22;28063;48.140;11.588;2023-04-15T08:39:11;12.00;69.50
42421;DHT22;28063;48.140;11.588;2023-04-15T08:41:46;12.10;69.30
42421;DHT22;28063;48.140;11.588;2023-04-15T08:44:13;12.10;69.00
42421;DHT22;28063;48.140;11.588;2023-04-15T08:46:40;12.10;68.80
42421;DHT22;28063;48.140;11.588;2023-04-15T08:49:10;12.00;68.40
42421;DHT22;28063;48.140;11.588;2023-04-15T08:51:37;11.80;68.70
42421;DHT22;28063;48.140;11.588;2023-04-15T08:54:04;11.70;68.40
42421;DHT22;28063;48.140;11.588;2023-04-15T08:56:30;11.60;69.50
42421;DHT22;28063;48.140;11.588;2023-04-15T08:58:59;11.40;69.70
42421;DHT22;28063;48.140;11.588;2023-04-15T09:01:25;11.40;70.30
42421;DHT22;28063;48.140;11.588;2023-04-15T09:03:51;11.40;70.60
42421;DHT22;28063;48.140;11.588;2023-04-15T09:06:20;11.40;70.50
42421;DHT22;28063;48.140;11.588;2023-04-15T09:08:50;11.40;69.80
42421;DHT22;28063;48.140;11.588;2023-04-15T09:11:16;11.30;70.70
42421;DHT22;28063;48.140;11.588;2023-04-15T09:13:42;11.40;70.70
42421;DHT22;28063;48.140;11.588;2023-04-15T09:16:08;11.50;70.70
42421;DHT22;28063;48.140;11.588;2023-04-15T09:18:35;11.60;70.60
42421;DHT22;28063;48.140;11.588;2023-04-15T09:21:15;11.70;68.40
42421;DHT22;28063;48.140;11.588;2023-04-15T09:23:56;11.80;68.00
42421;DHT22;28063;48.140;11.588;2023-04-15T09:26:33;11.90;68.40
42421;DHT22;28063;48.140;11.588;2023-04-15T09:29:04;12.00;67.70
42421;DHT22;28063;48.140;11.588;2023-04-15T09:31:31;11.90;67.00
42421;DHT22;28063;48.140;11.588;2023-04-15T09:33:57;11.90;68.20
42421;DHT22;28063;48.140;11.588;2023-04-15T09:36:23;11.80;67.20
42421;DHT22;28063;48.140;11.588;2023-04-15T09:38:59;11.70;68.30
42421;DHT22;28063;48.140;11.588;2023-04-15T09:41:31;11.70;69.00
42421;DHT22;28063;48.140;11.588;2023-04-15T09:43:58;11.80;68.90
42421;DHT22;28063;48.140;11.588;2023-04-15T09:46:42;11.90;68.60
42421;DHT22;28063;48.140;11.588;2023-04-15T09:49:09;11.90;68.80
42421;DHT22;28063;48.140;11.588;2023-04-15T09:51:36;11.90;69.20
42421;DHT22;28063;48.140;11.588;2023-04-15T09:54:02;11.80;68.80
42421;DHT22;28063;48.140;11.588;2023-04-15T09:56:46;11.70;69.50
42421;DHT22;28063;48.140;11.588;2023-04-15T09:59:13;11.50;69.30
42421;DHT22;28063;48.140;11.588;2023-04-15T10:01:40;11.30;69.80
42421;DHT22;28063;48.140;11.588;2023-04-15T10:04:07;11.10;71.00
42421;DHT22;28063;48.140;11.588;2023-04-15T10:06:33;11.00;71.30
42421;DHT22;28063;48.140;11.588;2023-04-15T10:09:01;10.80;72.00
42421;DHT22;28063;48.140;11.588;2023-04-15T10:11:30;10.70;72.40
42421;DHT22;28063;48.140;11.588;2023-04-15T10:13:57;10.60;73.30
42421;DHT22;28063;48.140;11.588;2023-04-15T10:16:26;10.70;73.80
42421;DHT22;28063;48.140;11.588;2023-04-15T10:18:57;10.80;73.50
42421;DHT22;28063;48.140;11.588;2023-04-15T10:21:27;10.90;72.60
42421;DHT22;28063;48.140;11.588;2023-04-15T10:23:53;11.00;72.30
42421;DHT22;28063;48.140;11.588;2023-04-15T10:26:22;11.10;71.90
42421;DHT22;28063;48.140;11.588;2023-04-15T10:28:48;11.10;71.40
42421;DHT22;28063;48.140;11.588;2023-04-15T10:31:14;11.10;71.20
42421;DHT22;28063;48.140;11.588;2023-04-15T10:33:41;11.10;71.30
42421;DHT22;28063;48.140;11.588;2023-04-15T10:36:08;11.20;71.00
42421;DHT22;28063;48.140;11.588;2023-04-15T10:38:35;11.20;70.90
42421;DHT22;28063;48.140;11.588;2023-04-15T10:41:15;11.30;71.20
42421;DHT22;28063;48.140;11.588;2023-04-15T10:43:55;11.50;70.80
42421;DHT22;28063;48.140;11.588;2023-04-15T10:49:15;11.70;69.60
42421;DHT22;28063;48.140;11.588;2023-04-15T10:51:50;11.70;68.90
42421;DHT22;28063;48.140;11.588;2023-04-15T10:54:30;11.60;68.60
42421;DHT22;28063;48.140;11.588;2023-04-15T10:59:38;11.50;70.10
42421;DHT22;28063;48.140;11.588;2023-04-15T11:02:38;11.70;69.50
42421;DHT22;28063;48.140;11.588;2023-04-15T11:05:04;11.70;68.50
42421;DHT22;28063;48.140;11.588;2023-04-15T11:10:03;11.50;69.20
42421;DHT22;28063;48.140;11.588;2023-04-15T11:12:35;11.50;68.90
42421;DHT22;28063;48.140;11.588;2023-04-15T11:15:27;11.40;70.00
42421;DHT22;28063;48.140;11.588;2023-04-15T11:17:55;11.30;70.30
42421;DHT22;28063;48.140;11.588;2023-04-15T11:20:21;11.40;70.40
42421;DHT22;28063;48.140;11.588;2023-04-15T11:22:51;11.40;70.30
42421;DHT22;28063;48.140;11.588;2023-04-15T11:25:24;11.30;68.90
42421;DHT22;28063;48.140;11.588;2023-04-15T11:27:51;11.20;69.70
42421;DHT22;28063;48.140;11.588;2023-04-15T11:30:21;11.10;70.90
42421;DHT22;28063;48.140;11.588;2023-04-15T11:32:52;11.00;70.40
42421;DHT22;28063;48.140;11.588;2023-04-15T11:35:18;10.80;71.00
42421;DHT22;28063;48.140;11.588;2023-04-15T11:37:45;10.60;72.00
42421;DHT22;28063;48.140;11.588;2023-04-15T11:40:12;10.40;72.80
42421;DHT22;28063;48.140;11.588;2023-04-15T11:42:39;10.20;73.70
42421;DHT22;28063;48.140;11.588;2023-04-15T11:45:13;10.00;74.60
42421;DHT22;28063;48.140;11.588;2023-04-15T11:47:40;9.90;75.80
42421;DHT22;28063;48.140;11.588;2023-04-15T11:50:20;9.90;76.90
42421;DHT22;28063;48.140;11.588;2023-04-15T11:52:57;10.00;77.10
42421;DHT22;28063;48.140;11.588;2023-04-15T11:55:23;10.10;77.40
42421;DHT22;28063;48.140;11.588;2023-04-15T11:58:18;10.00;76.90
42421;DHT22;28063;48.140;11.588;2023-04-15T12:00:57;9.90;77.40
42421;DHT22;28063;48.140;11.588;2023-04-15T12:06:07;10.00;78.00
42421;DHT22;28063;48.140;11.588;2023-04-15T12:16:31;10.50;75.80
42421;DHT22;28063;48.140;11.588;2023-04-15T12:18:58;10.60;74.90
42421;DHT22;28063;48.140;11.588;2023-04-15T12:21:26;10.50;73.40
42421;DHT22;28063;48.140;11.588;2023-04-15T12:24:00;10.60;72.40
42421;DHT22;28063;48.140;11.588;2023-04-15T12:26:32;10.50;72.20
42421;DHT22;28063;48.140;11.588;2023-04-15T12:29:06;10.50;72.30
42421;DHT22;28063;48.140;11.588;2023-04-15T12:31:35;10.60;72.30
42421;DHT22;28063;48.140;11.588;2023-04-15T12:34:02;10.70;72.70
42421;DHT22;28063;48.140;11.588;2023-04-15T12:36:30;10.80;72.50
42421;DHT22;28063;48.140;11.588;2023-04-15T12:39:01;10.90;71.20
42421;DHT22;28063;48.140;11.588;2023-04-15T12:41:28;11.00;70.90
42421;DHT22;28063;48.140;11.588;2023-04-15T12:43:53;11.00;70.60
42421;DHT22;28063;48.140;11.588;2023-04-15T12:46:19;11.00;67.60
42421;DHT22;28063;48.140;11.588;2023-04-15T12:48:45;10.90;67.90
42421;DHT22;28063;48.140;11.588;2023-04-15T12:51:10;10.80;67.80
42421;DHT22;28063;48.140;11.588;2023-04-15T12:53:36;10.80;66.80
42421;DHT22;28063;48.140;11.588;2023-04-15T12:56:02;10.70;66.50
42421;DHT22;28063;48.140;11.588;2023-04-15T12:58:27;10.50;67.20
42421;DHT22;28063;48.140;11.588;2023-04-15T13:00:53;10.40;66.90
42421;DHT22;28063;48.140;11.588;2023-04-15T13:03:19;10.30;66.40
42421;DHT22;28063;48.140;11.588;2023-04-15T13:05:45;10.20;66.80
42421;DHT22;28063;48.140;11.588;2023-04-15T13:08:10;10.20;66.30
42421;DHT22;28063;48.140;11.588;2023-04-15T13:10:36;10.20;66.10
42421;DHT22;28063;48.140;11.588;2023-04-15T13:13:02;10.20;66.20
42421;DHT22;28063;48.140;11.588;2023-04-15T13:15:28;10.10;66.60
42421;DHT22;28063;48.140;11.588;2023-04-15T13:17:54;10.10;66.90
42421;DHT22;28063;48.140;11.588;2023-04-15T13:20:20;10.10;66.70
42421;DHT22;28063;48.140;11.588;2023-04-15T13:22:46;10.10;67.10
42421;DHT22;28063;48.140;11.588;2023-04-15T13:25:12;10.10;67.50
42421;DHT22;28063;48.140;11.588;2023-04-15T13:27:37;10.10;68.40
42421;DHT22;28063;48.140;11.588;2023-04-15T13:30:04;10.10;68.20
42421;DHT22;28063;48.140;11.588;2023-04-15T13:32:30;10.10;68.10
42421;DHT22;28063;48.140;11.588;2023-04-15T13:34:55;10.10;68.50
42421;DHT22;28063;48.140;11.588;2023-04-15T13:37:28;10.20;68.50
42421;DHT22;28063;48.140;11.588;2023-04-15T13:39:55;10.20;68.70
42421;DHT22;28063;48.140;11.588;2023-04-15T13:42:21;10.20;68.70
42421;DHT22;28063;48.140;11.588;2023-04-15T13:44:48;10.20;69.10
42421;DHT22;28063;48.140;11.588;2023-04-15T13:47:14;10.20;68.90
42421;DHT22;28063;48.140;11.588;2023-04-15T13:49:40;10.10;69.30
42421;DHT22;28063;48.140;11.588;2023-04-15T13:52:06;10.00;70.20
42421;DHT22;28063;48.140;11.588;2023-04-15T13:54:31;9.90;71.50
42421;DHT22;28063;48.140;11.588;2023-04-15T13:56:57;9.80;72.60
42421;DHT22;28063;48.140;11.588;2023-04-15T13:59:23;9.70;73.30
42421;DHT22;28063;48.140;11.588;2023-04-15T14:01:49;9.70;73.50
42421;DHT22;28063;48.140;11.588;2023-04-15T14:04:14;9.60;73.80
42421;DHT22;28063;48.140;11.588;2023-04-15T14:06:40;9.60;74.60
42421;DHT22;28063;48.140;11.588;2023-04-15T14:09:06;9.60;74.00
42421;DHT22;28063;48.140;11.588;2023-04-15T14:11:31;9.60;73.70
42421;DHT22;28063;48.140;11.588;2023-04-15T14:13:59;9.60;73.90
42421;DHT22;28063;48.140;11.588;2023-04-15T14:16:25;9.60;73.10
42421;DHT22;28063;48.140;11.588;2023-04-15T14:18:51;9.70;72.80
42421;DHT22;28063;48.140;11.588;2023-04-15T14:21:17;9.70;73.10
42421;DHT22;28063;48.140;11.588;2023-04-15T14:23:42;9.80;71.30
42421;DHT22;28063;48.140;11.588;2023-04-15T14:26:08;9.90;71.30
42421;DHT22;28063;48.140;11.588;2023-04-15T14:28:34;9.90;71.20
42421;DHT22;28063;48.140;11.588;2023-04-15T14:31:02;9.90;70.30
42421;DHT22;28063;48.140;11.588;2023-04-15T14:33:28;10.00;70.30
42421;DHT22;28063;48.140;11.588;2023-04-15T14:35:54;9.90;69.70
42421;DHT22;28063;48.140;11.588;2023-04-15T14:38:20;10.00;69.30
42421;DHT22;28063;48.140;11.588;2023-04-15T14:40:47;9.90;69.90
42421;DHT22;28063;48.140;11.588;2023-04-15T14:43:12;9.80;70.70
42421;DHT22;28063;48.140;11.588;2023-04-15T14:45:38;9.80;71.10
42421;DHT22;28063;48.140;11.588;2023-04-15T14:48:04;9.80;71.00
42421;DHT22;28063;48.140;11.588;2023-04-15T14:50:31;9.80;71.30
42421;DHT22;28063;48.140;11.588;2023-04-15T14:52:57;9.80;71.50
42421;DHT22;28063;48.140;11.588;2023-04-15T14:55:23;9.80;71.50
42421;DHT22;28063;48.140;11.588;2023-04-15T14:57:49;9.80;71.80
42421;DHT22;28063;48.140;11.588;2023-04-15T15:00:14;9.80;72.00
42421;DHT22;28063;48.140;11.588;2023-04-15T15:02:40;9.90;72.30
42421;DHT22;28063;48.140;11.588;2023-04-15T15:05:08;9.90;72.30
42421;DHT22;28063;48.140;11.588;2023-04-15T15:07:34;9.80;73.10
42421;DHT22;28063;48.140;11.588;2023-04-15T15:10:01;9.70;74.10
42421;DHT22;28063;48.140;11.588;2023-04-15T15:12:27;9.70;75.60
42421;DHT22;28063;48.140;11.588;2023-04-15T15:14:54;9.60;76.90
42421;DHT22;28063;48.140;11.588;2023-04-15T15:17:20;9.40;78.20
42421;DHT22;28063;48.140;11.588;2023-04-15T15:19:46;9.30;79.00
42421;DHT22;28063;48.140;11.588;2023-04-15T15:22:12;9.20;80.00
42421;DHT22;28063;48.140;11.588;2023-04-15T15:24:37;9.00;81.50
42421;DHT22;28063;48.140;11.588;2023-04-15T15:27:03;8.90;82.70
42421;DHT22;28063;48.140;11.588;2023-04-15T15:29:29;8.80;83.50
42421;DHT22;28063;48.140;11.588;2023-04-15T15:31:54;8.60;85.20
42421;DHT22;28063;48.140;11.588;2023-04-15T15:34:20;8.30;86.60
42421;DHT22;28063;48.140;11.588;2023-04-15T15:36:46;8.10;88.50
42421;DHT22;28063;48.140;11.588;2023-04-15T15:39:12;8.00;89.60
42421;DHT22;28063;48.140;11.588;2023-04-15T15:41:38;7.90;90.30
42421;DHT22;28063;48.140;11.588;2023-04-15T15:44:03;7.90;90.90